WEATHER DATA

YESTERDAY
Time Temp. Dewp. Hum. Wind dir Wind speed Wind gust Bar. 1h Prec. 24h Prec.
00:17 1.6 -0.4 86 90 0.3 0.8 1029.4 0.0000 0.0000
00:38 1.7 -0.3 86 90 0.3 0.8 1029.4 0.0000 0.0000
00:48 1.8 -0.3 86 90 0.3 0.8 1029.4 0.0000 0.0000
01:07 1.8 -0.4 85 90 0.3 0.8 1029.1 0.0000 0.0000
01:18 1.8 -0.4 85 90 0.3 0.8 1029 0.0000 0.0000
01:28 1.8 -0.4 85 90 0.3 0.8 1029.1 0.0000 0.0000
01:38 1.8 -0.4 85 90 0.3 0.8 1029.1 0.0000 0.0000
01:48 1.7 -0.5 85 90 0.3 0.8 1029.2 0.0000 0.0000
01:58 1.5 -0.8 84 90 0.3 0.8 1029 0.0000 0.0000
02:08 1.4 -0.9 84 90 0.3 0.8 1029 0.0000 0.0000
02:18 1.3 -1 84 90 0.3 0.8 1028.9 0.0000 0.0000
02:29 1.2 -1.1 84 90 0.3 0.8 1028.8 0.0000 0.0000
02:38 1.1 -1.1 84 90 0.3 0.8 1028.6 0.0000 0.0000
02:48 0.9 -1.3 84 90 0.3 0.8 1028.6 0.0000 0.0000
02:59 0.7 -1.5 84 90 0.3 0.8 1028.3 0.0000 0.0000
03:09 0.6 -1.6 84 90 0.3 0.8 1028.2 0.0000 0.0000
03:18 0.4 -1.8 84 90 0.3 0.8 1028.2 0.0000 0.0000
03:28 0.2 -1.9 84 90 0.3 0.8 1028.1 0.0000 0.0000
03:39 -0.1 -2.2 84 90 0.3 0.8 1027.8 0.0000 0.0000
03:49 -0.3 -2.4 84 90 0.3 0.8 1027.7 0.0000 0.0000
03:59 -0.6 -2.7 84 90 0.3 0.8 1027.6 0.0000 0.0000
04:09 -0.7 -2.8 84 90 0.3 0.8 1027.6 0.0000 0.0000
04:19 -0.9 -3 84 90 0.3 0.8 1027.6 0.0000 0.0000
04:29 -0.8 -2.7 85 90 0.3 0.8 1027.6 0.0000 0.0000
04:39 -0.5 -2.3 86 90 0.3 0.8 1027.5 0.0000 0.0000
04:49 -0.3 -2.3 85 90 0.3 0.8 1027.3 0.0000 0.0000
04:59 -0.4 -2.4 85 90 0.3 0.8 1027.1 0.0000 0.0000
05:09 -0.3 -2.3 85 90 0.3 0.8 1026.9 0.0000 0.0000
05:20 -0.2 -2.2 85 90 0.3 0.8 1026.8 0.0000 0.0000
05:30 -0.2 -2.2 85 90 0.3 0.8 1026.8 0.0000 0.0000
05:39 -0.2 -2.2 85 90 0.3 0.8 1026.8 0.0000 0.0000
05:49 -0.3 -2.4 84 90 0.3 0.8 1026.6 0.0000 0.0000
06:00 -0.5 -2.6 84 90 0.3 0.8 1026.6 0.0000 0.0000
06:10 -0.7 -2.8 84 90 0.3 0.8 1026.7 0.0000 0.0000
06:20 -0.8 -2.9 84 90 0.3 0.8 1026.8 0.0000 0.0000
06:30 -1 -3.1 84 90 0.3 0.8 1026.8 0.0000 0.0000
06:40 -1.3 -3.4 84 90 0.3 0.8 1026.6 0.0000 0.0000
06:50 -1.5 -3.6 84 90 0.3 0.8 1026.4 0.0000 0.0000
07:00 -1.7 -3.8 84 90 0.3 0.8 1026.6 0.0000 0.0000
07:10 -1.8 -3.9 84 90 0.3 0.8 1026.5 0.0000 0.0000
07:20 -2 -4.1 84 90 0.3 0.8 1026.3 0.0000 0.0000
07:30 -2 -4.1 84 90 0.3 0.8 1026.3 0.0000 0.0000
07:41 -2 -3.9 85 90 0.3 0.8 1026.4 0.0000 0.0000
07:51 -2 -3.9 85 90 0.3 0.8 1026.4 0.0000 0.0000
08:00 -2 -3.9 85 90 0.3 0.8 1026.4 0.0000 0.0000
08:10 -1.9 -3.8 85 90 0.3 0.8 1026.3 0.0000 0.0000
08:21 -1.9 -3.8 85 90 0.3 0.8 1026.4 0.0000 0.0000
08:31 -1.7 -3.6 85 90 0.3 0.8 1026.2 0.0000 0.0000
08:40 -1.6 -3.4 86 90 0.3 0.8 1026.1 0.0000 0.0000
08:51 -1.4 -3.2 86 90 0.3 0.8 1026 0.0000 0.0000
09:01 -1.1 -2.9 86 90 0.3 0.8 1026 0.0000 0.0000
09:11 -0.7 -2.4 87 90 0.3 0.8 1025.8 0.0000 0.0000
09:21 -0.3 -2 87 90 0.3 0.8 1025.7 0.0000 0.0000
09:31 0 -1.7 87 90 0.3 0.8 1025.4 0.0000 0.0000
09:41 0.4 -1.3 87 90 0.3 0.8 1025.4 0.0000 0.0000
09:51 0.7 -1.2 86 90 0.3 0.8 1025.3 0.0000 0.0000
10:02 0.9 -1 86 90 0.3 0.8 1025.1 0.0000 0.0000
10:12 1.3 -0.7 86 90 0.3 0.8 1025.1 0.0000 0.0000
10:21 1.7 -0.3 86 90 0.3 0.8 1025 0.0000 0.0000
10:31 2 -0.1 86 90 0.3 0.8 1025 0.0000 0.0000
10:42 2.3 0 85 90 0.3 0.8 1025 0.0000 0.0000
10:52 2.5 0.2 85 90 0.3 0.8 1025.1 0.0000 0.0000
11:02 2.8 0.5 85 90 0.3 0.8 1025 0.0000 0.0000
11:12 2.9 0.5 84 90 0.3 0.8 1024.6 0.0000 0.0000
11:22 3.1 0.7 84 90 0.3 0.8 1024.5 0.0000 0.0000
11:32 3.2 0.8 84 90 0.3 0.8 1024.3 0.0000 0.0000
11:42 3.3 0.9 84 90 0.3 0.8 1024.3 0.0000 0.0000
11:53 3.5 1.1 84 90 0.3 0.8 1024.3 0.0000 0.0000
12:03 3.9 1.6 85 90 0.3 0.8 1024.2 0.0000 0.0000
12:12 4.3 2 85 90 0.3 0.8 1023.9 0.0000 0.0000
12:22 4.5 2 84 90 0.3 0.8 1023.6 0.0000 0.0000
12:33 4.5 1.9 83 90 0.3 0.8 1023.5 0.0000 0.0000
12:43 4.3 1.5 82 90 0.3 0.8 1023.4 0.0000 0.0000
12:53 4.2 1.6 83 90 0.3 0.8 1023.2 0.0000 0.0000
13:04 4.4 1.8 83 90 0.3 0.8 1023.1 0.0000 0.0000
13:13 4.6 2.1 84 90 0.3 0.8 1022.9 0.0000 0.0000
13:23 4.8 2.2 83 90 0.3 0.8 1022.7 0.0000 0.0000
13:33 5 2.4 83 90 0.3 0.8 1022.4 0.0000 0.0000
13:44 5.2 2.6 83 90 0.3 0.8 1022.2 0.0000 0.0000
13:54 5.3 2.7 83 90 0.3 0.8 1022 0.0000 0.0000
14:04 5.4 2.7 83 90 0.3 0.8 1021.7 0.0000 0.0000
14:14 5.4 2.7 83 90 0.3 0.8 1021.6 0.0000 0.0000
14:24 5.3 2.5 82 90 0.3 0.8 1021.4 0.0000 0.0000
14:34 5.2 2.4 82 90 0.3 0.8 1021.3 0.0000 0.0000
14:44 5.1 2.3 82 90 0.3 0.8 1021.1 0.0000 0.0000
14:55 5 2.2 82 90 0.3 0.8 1020.9 0.0000 0.0000
15:05 5 2.2 82 90 0.3 0.8 1020.8 0.0000 0.0000
15:14 4.9 2.1 82 90 0.3 0.8 1020.7 0.0000 0.0000
15:24 4.8 2 82 90 0.3 0.8 1020.6 0.0000 0.0000
15:35 4.7 1.9 82 90 0.3 0.8 1020.7 0.0000 0.0000
15:45 4.5 1.7 82 90 0.3 0.8 1020.6 0.0000 0.0000
15:55 4.5 1.7 82 90 0.3 0.8 1020.6 0.0000 0.0000
16:06 4.4 1.6 82 90 0.3 0.8 1020.3 0.0000 0.0000
16:15 4.3 1.3 81 90 0.3 0.8 1020.3 0.0000 0.0000
16:25 4.2 1.2 81 90 0.3 0.8 1020.2 0.0000 0.0000
16:35 4.1 1.1 81 90 0.3 0.8 1020.2 0.0000 0.0000
16:46 4 1 81 90 0.3 0.8 1020.2 0.0000 0.0000
16:56 3.9 0.9 81 90 0.3 0.8 1020.1 0.0000 0.0000
17:05 3.9 0.9 81 90 0.3 0.8 1019.9 0.0000 0.0000
17:16 3.8 0.8 81 90 0.3 0.8 1019.7 0.0000 0.0000
17:26 3.8 0.8 81 90 0.3 0.8 1019.5 0.0000 0.0000
17:36 3.8 0.8 81 90 0.3 0.8 1019.4 0.0000 0.0000
17:46 3.7 0.7 81 90 0.3 0.8 1019.2 0.0000 0.0000
17:57 3.7 0.7 81 90 0.3 0.8 1019.2 0.0000 0.0000
18:06 3.7 0.7 81 90 0.3 0.8 1019.2 0.0000 0.0000
18:16 3.6 0.6 81 90 0.3 0.8 1019.1 0.0000 0.0000
18:27 3.5 0.6 81 90 0.3 0.8 1019 0.0000 0.0000
18:47 3.3 0.4 81 90 0.3 0.8 1018.8 0.0000 0.0000
18:56 3.2 0.3 81 90 0.3 0.8 1018.6 0.0000 0.0000
19:07 3.1 0.2 81 90 0.3 0.8 1018.4 0.0000 0.0000
19:17 3.1 0.2 81 90 0.3 0.8 1018.4 0.0000 0.0000
19:27 3 0.1 81 90 0.3 0.8 1018.3 0.0000 0.0000
19:31 2.9 0 81 90 0.3 0.8 1018.3 0.0000 0.0000
19:40 2.8 -0.3 80 90 0.3 0.8 1018.2 0.0000 0.0000
19:50 2.6 -0.3 81 90 0.3 0.8 1018.2 0.0000 0.0000
20:00 2.6 -0.3 81 90 0.3 0.8 1018.1 0.0000 0.0000
20:11 2.5 -0.4 81 90 0.3 0.8 1017.9 0.0000 0.0000
20:21 2.4 -0.5 81 90 0.3 0.8 1018 0.0000 0.0000
20:30 2.3 -0.5 81 90 0.3 0.8 1017.8 0.0000 0.0000
20:41 2.3 -0.5 81 90 0.3 0.8 1017.7 0.0000 0.0000
20:51 2.3 -0.5 81 90 0.3 0.8 1017.8 0.0000 0.0000
21:01 2.4 -0.5 81 90 0.3 0.8 1017.6 0.0000 0.0000
21:11 2.3 -0.5 81 90 0.3 0.8 1017.5 0.0000 0.0000
21:22 2.3 -0.5 81 90 0.3 0.8 1017.5 0.0000 0.0000
21:31 2.3 -0.5 81 90 0.3 0.8 1017.5 0.0000 0.0000
21:41 2.2 -0.6 81 90 0.3 0.8 1017.4 0.0000 0.0000
21:52 2.2 -0.5 82 90 0.3 0.8 1017.3 0.0000 0.0000
22:02 2.2 -0.5 82 90 0.3 0.8 1017.2 0.0000 0.0000
22:12 2.1 -0.6 82 90 0.3 0.8 1017 0.0000 0.0000
22:22 2.1 -0.6 82 90 0.3 0.8 1016.9 0.0000 0.0000
22:32 2.1 -0.6 82 90 0.3 0.8 1016.8 0.0000 0.0000
22:42 2 -0.7 82 90 0.3 0.8 1016.8 0.0000 0.0000
22:52 2 -0.7 82 90 0.3 0.8 1016.7 0.0000 0.0000
23:03 1.9 -0.7 82 90 0.3 0.8 1016.6 0.0000 0.0000
23:12 1.8 -0.8 82 90 0.3 0.8 1016.6 0.0000 0.0000
23:22 1.7 -0.9 82 90 0.3 0.8 1016.5 0.0000 0.0000
23:32 1.6 -1 82 90 0.3 0.8 1016.5 0.0000 0.0000
23:43 1.6 -1 82 90 0.3 0.8 1016.5 0.0000 0.0000
23:53 1.6 -1 82 90 0.3 0.8 1016.4 0.0000 0.0000

DAY STATISTIC

2018-11-18
TEMPERATURE
AVERAGE
1.9
HIGH
5.4
14:04
LOW
-2.0
07:20
PRESSURE
AVERAGE
1023.1
HIGH
1029.4
00:17
LOW
1016.4
23:53
DEWPOINT
AVERAGE
-0.5
HIGH
2.7
13:54
LOW
-4.1
07:20
HUMIDITY
AVERAGE
83
HIGH
87
09:11
LOW
80
19:40
WIND SPEED
AVERAGE
0.3
HIGH
0.3
00:17
WIND GUST
AVERAGE
0.8
HIGH
0.8
00:17
WIND DIRECTION
PREVAILING
E
100%
N
0.0
NE
0.0
E
100.0
SE
0.0
S
0.0
SW
0.0
W
0.0
NW
0.0
PRECIPITATION
RAIN HOUR
0.0
RAIN DAY
0.0
TEMPERATURE (°C)
LOW
-2.0
HIGH
5.4
AVERAGE
1.9
PRESSURE (hpa)
LOW
1016.4
HIGH
1029.4
AVERAGE
1023.1
DEVICE